Portada
METAR-TAF:

METAR-TAF

Aeroports :

Aeroport Internacional Mohammed V

Casablanca-Muhammad V, Marroc

latitud: 33-22N, longitud: 007-35W, altitud: 200 m

Observació

L'informe es va fer fa 13 minuts, a les 04:00 UTC
Vent 7 kt del Sud/Sud-Oest
Temperatura 7°C
Humitat 100%
Pressió 1021 hPa
Visibilitat: 6000 m

METAR: GMMN 200400Z 20007KT 6000 NSC 07/07 Q1021 NOSIG

Hora: 05:13 (04:13 UTC)

Pronòstic

L'informe es va fer fa 5 hores i 13 minuts, a les 23:00 UTC
Pronòstic vàlid del 20 a les 00 UTC al 21 a les 06 UTC
Vent 5 kt del Sud/Sud-Oest
Visibilitat: 3500 m
Escasses núvols a una alçada de 1000 ft
boirina
Evolucionant progressivament
l' 20 a les 08 UTC al 20 a les 11 UTC
Visibilitat 10 km o més
sense núvols per sota de 1500 mi sense presència de cumulonimbus.
Temporalment
l' 20 a les 20 UTC al 21 a les 04 UTC
Visibilitat: 3000 m
Escasses núvols a una alçada de 1000 ft
boirina

TAF: GMMN 192300Z 2000/2106 20005KT 3500 BR FEW010 BECMG 2008/2011 CAVOK TEMPO 2020/2104 3000 BR FEW010

Observacions i pronòstics meteorològics de més de 4000 aeroports (METAR i TAF).

Les estacions disponibles són els punts grocs i vermells al mapa.

Posi el ratolí al punt desitjat per veure el nom de l'estació.

Feu clic per veure les observacions i els pronòstics meteorològics.

Per canviar el mapa: feu clic els botons verds amb una creu de color negre per apropar; al botó verd amb un guió per allunyar la imatge; o en les fletxes verdes per a mapes adjacents.


METAR-TAF: